createdAt,value
2022-10-16T00:00:32.592Z,988.94
2022-10-16T00:01:32.590Z,988.94
2022-10-16T00:02:32.632Z,988.96
2022-10-16T00:03:32.563Z,988.91
2022-10-16T00:04:32.560Z,988.92
2022-10-16T00:05:32.510Z,988.85
2022-10-16T00:06:32.522Z,988.86
2022-10-16T00:07:32.510Z,988.83
2022-10-16T00:08:32.508Z,988.86
2022-10-16T00:09:32.479Z,988.85
2022-10-16T00:10:32.469Z,988.86
2022-10-16T00:11:32.474Z,988.90
2022-10-16T00:12:32.428Z,988.89
2022-10-16T00:13:32.427Z,988.92
2022-10-16T00:14:32.433Z,988.93
2022-10-16T00:15:32.417Z,988.97
2022-10-16T00:16:32.376Z,988.96
2022-10-16T00:17:32.396Z,988.96
2022-10-16T00:18:32.380Z,988.94
2022-10-16T00:19:32.356Z,988.96
2022-10-16T00:20:32.320Z,989.02
2022-10-16T00:21:32.367Z,989.01
2022-10-16T00:22:32.335Z,989.02
2022-10-16T00:23:32.303Z,989.06
2022-10-16T00:24:32.277Z,989.07
2022-10-16T00:25:32.274Z,989.08
2022-10-16T00:26:32.275Z,989.09
2022-10-16T00:27:32.246Z,989.08
2022-10-16T00:28:32.326Z,989.09
2022-10-16T00:29:32.235Z,989.14
2022-10-16T00:30:32.194Z,989.18
2022-10-16T00:31:32.192Z,989.15
2022-10-16T00:32:32.173Z,989.19
2022-10-16T00:33:32.232Z,989.13
2022-10-16T00:34:32.140Z,989.21
2022-10-16T00:35:32.122Z,989.17
2022-10-16T00:36:32.142Z,989.16
2022-10-16T00:37:32.111Z,989.21
2022-10-16T00:38:32.091Z,989.16
2022-10-16T00:39:32.093Z,989.14
2022-10-16T00:40:32.071Z,989.12
2022-10-16T00:41:32.147Z,989.19
2022-10-16T00:42:32.043Z,989.14
2022-10-16T00:43:32.054Z,989.12
2022-10-16T00:44:32.031Z,989.13
2022-10-16T00:45:32.021Z,989.08
2022-10-16T00:46:32.020Z,989.05
2022-10-16T00:47:31.984Z,989.02
2022-10-16T00:48:31.990Z,989.00
2022-10-16T00:49:31.970Z,989.05
2022-10-16T00:50:31.949Z,988.99
2022-10-16T00:51:31.909Z,988.98
2022-10-16T00:52:31.916Z,988.98
2022-10-16T00:53:31.907Z,988.96
2022-10-16T00:54:32.087Z,988.96
2022-10-16T00:55:31.864Z,988.93
2022-10-16T00:56:31.866Z,988.97
2022-10-16T00:57:31.870Z,989.00
2022-10-16T00:58:31.837Z,989.00
2022-10-16T00:59:31.824Z,989.04
2022-10-16T01:00:31.817Z,989.07
2022-10-16T01:01:31.833Z,989.15
2022-10-16T01:02:31.802Z,989.15
2022-10-16T01:03:31.784Z,989.16
2022-10-16T01:04:31.846Z,989.13
2022-10-16T01:05:31.755Z,989.17
2022-10-16T01:06:31.747Z,989.10
2022-10-16T01:07:31.733Z,989.20
2022-10-16T01:08:31.697Z,989.20
2022-10-16T01:09:31.714Z,989.13
2022-10-16T01:10:31.684Z,989.11
2022-10-16T01:11:31.674Z,989.11
2022-10-16T01:12:31.655Z,989.10
2022-10-16T01:13:31.663Z,989.07
2022-10-16T01:14:31.656Z,989.04
2022-10-16T01:15:31.686Z,988.99
2022-10-16T01:16:31.613Z,988.93
2022-10-16T01:17:31.622Z,988.94
2022-10-16T01:18:31.594Z,988.97
2022-10-16T01:19:31.582Z,988.97
2022-10-16T01:20:31.573Z,988.99
2022-10-16T01:21:31.560Z,988.99
2022-10-16T01:22:31.525Z,989.00
2022-10-16T01:23:31.537Z,989.09
2022-10-16T01:24:31.525Z,989.10
2022-10-16T01:25:31.479Z,989.08
2022-10-16T01:26:31.470Z,989.13
2022-10-16T01:27:31.459Z,989.13
2022-10-16T01:28:31.582Z,989.10
2022-10-16T01:29:31.440Z,989.17
2022-10-16T01:30:31.419Z,989.18
2022-10-16T01:31:31.408Z,989.22
2022-10-16T01:32:31.428Z,989.20
2022-10-16T01:33:31.420Z,989.26
2022-10-16T01:34:31.398Z,989.24
2022-10-16T01:35:31.377Z,989.23
2022-10-16T01:36:31.338Z,989.26
2022-10-16T01:37:31.328Z,989.30
2022-10-16T01:38:31.309Z,989.24
2022-10-16T01:39:31.306Z,989.29
2022-10-16T01:40:31.316Z,989.26
2022-10-16T01:41:31.306Z,989.25
2022-10-16T01:42:31.294Z,989.26
2022-10-16T01:43:31.248Z,989.28
2022-10-16T01:44:31.269Z,989.29
2022-10-16T01:45:31.255Z,989.32
2022-10-16T01:46:31.246Z,989.33
2022-10-16T01:47:31.184Z,989.32
2022-10-16T01:48:31.342Z,989.35
2022-10-16T01:49:31.203Z,989.33
2022-10-16T01:50:31.174Z,989.32
2022-10-16T01:51:31.134Z,989.26
2022-10-16T01:52:31.205Z,989.29
2022-10-16T01:53:31.163Z,989.27
2022-10-16T01:54:31.157Z,989.29
2022-10-16T01:55:31.085Z,989.29
2022-10-16T01:56:31.095Z,989.25
2022-10-16T01:57:31.090Z,989.26
2022-10-16T01:58:31.078Z,989.22
2022-10-16T01:59:31.052Z,989.21
2022-10-16T02:00:31.051Z,989.25
2022-10-16T02:01:31.036Z,989.23
2022-10-16T02:02:31.033Z,989.22
2022-10-16T02:03:31.033Z,989.23
2022-10-16T02:04:31.007Z,989.26
2022-10-16T02:05:30.968Z,989.27
2022-10-16T02:06:30.948Z,989.27
2022-10-16T02:07:30.950Z,989.23
2022-10-16T02:08:30.947Z,989.17
2022-10-16T02:09:30.999Z,989.15
2022-10-16T02:10:30.900Z,989.16
2022-10-16T02:11:30.899Z,989.14
2022-10-16T02:12:30.892Z,989.16
2022-10-16T02:13:30.869Z,989.13
2022-10-16T02:14:30.883Z,989.09
2022-10-16T02:15:30.863Z,989.11
2022-10-16T02:16:30.827Z,989.16
2022-10-16T02:17:30.889Z,989.18
2022-10-16T02:18:30.808Z,989.24
2022-10-16T02:19:30.843Z,989.25
2022-10-16T02:20:30.757Z,989.28
2022-10-16T02:21:30.755Z,989.26
2022-10-16T02:22:30.822Z,989.28
2022-10-16T02:23:30.726Z,989.25
2022-10-16T02:24:30.756Z,989.22
2022-10-16T02:25:30.696Z,989.23
2022-10-16T02:26:30.696Z,989.24
2022-10-16T02:27:30.697Z,989.22
2022-10-16T02:28:30.824Z,989.23
2022-10-16T02:29:30.645Z,989.24
2022-10-16T02:30:30.634Z,989.29
2022-10-16T02:31:30.644Z,989.25
2022-10-16T02:32:30.604Z,989.27
2022-10-16T02:33:30.616Z,989.27
2022-10-16T02:34:30.604Z,989.27
2022-10-16T02:35:30.648Z,989.32
2022-10-16T02:36:30.618Z,989.30
2022-10-16T02:37:30.560Z,989.28
2022-10-16T02:38:30.544Z,989.26
2022-10-16T02:39:30.556Z,989.25
2022-10-16T02:40:30.513Z,989.29
2022-10-16T02:41:30.515Z,989.29
2022-10-16T02:42:30.502Z,989.29
2022-10-16T02:43:30.480Z,989.25
2022-10-16T02:44:30.493Z,989.30
2022-10-16T02:45:30.449Z,989.28
2022-10-16T02:46:30.459Z,989.29
2022-10-16T02:47:30.523Z,989.27
2022-10-16T02:48:30.435Z,989.28
2022-10-16T02:49:30.405Z,989.33
2022-10-16T02:50:30.400Z,989.30
2022-10-16T02:51:30.409Z,989.34
2022-10-16T02:52:30.349Z,989.36
2022-10-16T02:53:31.318Z,989.33
2022-10-16T02:54:30.338Z,989.33
2022-10-16T02:55:30.359Z,989.29
2022-10-16T02:56:30.309Z,989.33
2022-10-16T02:57:30.335Z,989.34
2022-10-16T02:58:30.266Z,989.40
2022-10-16T02:59:30.287Z,989.38
2022-10-16T03:00:30.257Z,989.34
2022-10-16T03:01:30.338Z,989.28
2022-10-16T03:02:30.225Z,989.27
2022-10-16T03:03:30.227Z,989.29
2022-10-16T03:04:30.216Z,989.28
2022-10-16T03:05:30.214Z,989.26
2022-10-16T03:06:30.206Z,989.32
2022-10-16T03:07:30.154Z,989.31
2022-10-16T03:08:30.134Z,989.26
2022-10-16T03:09:30.184Z,989.25
2022-10-16T03:10:30.155Z,989.24
2022-10-16T03:11:30.103Z,989.28
2022-10-16T03:12:30.103Z,989.34
2022-10-16T03:13:30.107Z,989.34
2022-10-16T03:14:30.087Z,989.37
2022-10-16T03:15:30.083Z,989.37
2022-10-16T03:16:30.055Z,989.36
2022-10-16T03:17:30.084Z,989.37
2022-10-16T03:18:30.051Z,989.43
2022-10-16T03:19:30.011Z,989.39
2022-10-16T03:20:30.042Z,989.39
2022-10-16T03:21:29.969Z,989.38
2022-10-16T03:22:30.013Z,989.40
2022-10-16T03:24:29.960Z,989.37
2022-10-16T03:25:30.005Z,989.42
2022-10-16T03:26:29.961Z,989.44
2022-10-16T03:27:30.033Z,989.42
2022-10-16T03:28:29.952Z,989.40
2022-10-16T03:29:29.890Z,989.42
2022-10-16T03:30:29.957Z,989.45
2022-10-16T03:31:29.848Z,989.50
2022-10-16T03:32:29.879Z,989.49
2022-10-16T03:33:29.839Z,989.50
2022-10-16T03:34:29.821Z,989.49
2022-10-16T03:35:29.798Z,989.48
2022-10-16T03:36:29.777Z,989.47
2022-10-16T03:37:29.994Z,989.48
2022-10-16T03:38:29.781Z,989.45
2022-10-16T03:39:29.740Z,989.49
2022-10-16T03:40:29.769Z,989.49
2022-10-16T03:41:29.727Z,989.51
2022-10-16T03:42:29.735Z,989.48
2022-10-16T03:43:29.746Z,989.48
2022-10-16T03:44:29.674Z,989.51
2022-10-16T03:45:29.677Z,989.50
2022-10-16T03:46:29.667Z,989.51
2022-10-16T03:47:29.873Z,989.47
2022-10-16T03:48:29.691Z,989.49
2022-10-16T03:49:29.604Z,989.45
2022-10-16T03:50:29.646Z,989.47
2022-10-16T03:51:29.602Z,989.45
2022-10-16T03:52:29.574Z,989.46
2022-10-16T03:53:29.561Z,989.45
2022-10-16T03:54:29.647Z,989.45
2022-10-16T03:55:29.542Z,989.48
2022-10-16T03:56:29.552Z,989.46
2022-10-16T03:57:29.808Z,989.49
2022-10-16T03:58:29.494Z,989.48
2022-10-16T03:59:29.500Z,989.48
2022-10-16T04:00:29.543Z,989.45
2022-10-16T04:01:29.450Z,989.48
2022-10-16T04:02:29.452Z,989.45
2022-10-16T04:03:29.463Z,989.47
2022-10-16T04:04:29.431Z,989.45
2022-10-16T04:05:29.431Z,989.47
2022-10-16T04:06:29.441Z,989.45
2022-10-16T04:07:29.454Z,989.47
2022-10-16T04:08:29.460Z,989.51
2022-10-16T04:09:29.348Z,989.51
2022-10-16T04:10:29.360Z,989.55
2022-10-16T04:11:29.358Z,989.57
2022-10-16T04:12:29.385Z,989.57
2022-10-16T04:13:29.306Z,989.55
2022-10-16T04:14:29.278Z,989.57
2022-10-16T04:15:29.300Z,989.55
2022-10-16T04:16:29.290Z,989.55
2022-10-16T04:17:29.425Z,989.49
2022-10-16T04:18:29.255Z,989.51
2022-10-16T04:19:29.276Z,989.46
2022-10-16T04:20:29.236Z,989.48
2022-10-16T04:21:29.219Z,989.49
2022-10-16T04:22:29.220Z,989.56
2022-10-16T04:23:29.225Z,989.55
2022-10-16T04:24:29.179Z,989.60
2022-10-16T04:25:29.175Z,989.62
2022-10-16T04:26:29.209Z,989.61
2022-10-16T04:27:29.395Z,989.63
2022-10-16T04:28:29.247Z,989.68
2022-10-16T04:29:29.157Z,989.65
2022-10-16T04:30:29.084Z,989.65
2022-10-16T04:31:29.089Z,989.61
2022-10-16T04:32:29.052Z,989.60
2022-10-16T04:33:29.062Z,989.61
2022-10-16T04:34:29.052Z,989.62
2022-10-16T04:35:29.075Z,989.64
2022-10-16T04:36:29.397Z,989.65
2022-10-16T04:37:29.304Z,989.63
2022-10-16T04:38:29.012Z,989.65
2022-10-16T04:39:28.961Z,989.65
2022-10-16T04:40:28.948Z,989.69
2022-10-16T04:41:28.951Z,989.72
2022-10-16T04:42:28.960Z,989.75
2022-10-16T04:44:28.909Z,989.76
2022-10-16T04:45:28.928Z,989.79
2022-10-16T04:46:28.888Z,989.80
2022-10-16T04:47:29.194Z,989.78
2022-10-16T04:48:28.888Z,989.83
2022-10-16T04:49:28.830Z,989.77
2022-10-16T04:50:28.829Z,989.84
2022-10-16T04:51:28.818Z,989.85
2022-10-16T04:52:28.845Z,989.84
2022-10-16T04:53:28.820Z,989.87
2022-10-16T04:54:28.778Z,989.88
2022-10-16T04:55:28.748Z,989.94
2022-10-16T04:56:28.745Z,989.87
2022-10-16T04:57:29.044Z,989.88
2022-10-16T04:58:28.747Z,989.93
2022-10-16T04:59:28.705Z,989.94
2022-10-16T05:00:28.695Z,989.98
2022-10-16T05:01:28.726Z,989.95
2022-10-16T05:02:28.771Z,989.90
2022-10-16T05:03:28.650Z,989.88
2022-10-16T05:04:28.655Z,989.88
2022-10-16T05:05:28.646Z,989.83
2022-10-16T05:06:28.605Z,989.84
2022-10-16T05:07:28.797Z,989.87
2022-10-16T05:08:28.574Z,989.90
2022-10-16T05:09:28.650Z,989.84
2022-10-16T05:10:28.582Z,989.85
2022-10-16T05:11:28.551Z,989.87
2022-10-16T05:12:28.562Z,989.89
2022-10-16T05:13:28.517Z,989.89
2022-10-16T05:14:28.503Z,989.87
2022-10-16T05:15:28.512Z,989.86
2022-10-16T05:16:28.482Z,989.88
2022-10-16T05:17:28.937Z,989.85
2022-10-16T05:18:28.471Z,989.86
2022-10-16T05:19:29.116Z,989.87
2022-10-16T05:20:28.431Z,989.87
2022-10-16T05:21:28.429Z,989.86
2022-10-16T05:22:28.410Z,989.89
2022-10-16T05:23:28.600Z,989.91
2022-10-16T05:24:28.390Z,989.86
2022-10-16T05:25:28.379Z,989.87
2022-10-16T05:26:28.380Z,989.85
2022-10-16T05:27:28.735Z,989.82
2022-10-16T05:28:28.421Z,989.79
2022-10-16T05:29:28.341Z,989.76
2022-10-16T05:30:28.318Z,989.75
2022-10-16T05:31:28.345Z,989.68
2022-10-16T05:32:28.287Z,989.69
2022-10-16T05:33:28.287Z,989.74
2022-10-16T05:34:28.287Z,989.79
2022-10-16T05:35:28.267Z,989.86
2022-10-16T05:36:28.256Z,989.91
2022-10-16T05:37:28.653Z,989.94
2022-10-16T05:38:28.236Z,989.92
2022-10-16T05:39:28.260Z,989.94
2022-10-16T05:40:28.166Z,989.95
2022-10-16T05:41:28.209Z,989.94
2022-10-16T05:42:29.096Z,989.96
2022-10-16T05:43:28.186Z,989.98
2022-10-16T05:44:28.213Z,990.03
2022-10-16T05:45:28.135Z,990.03
2022-10-16T05:46:28.154Z,990.04
2022-10-16T05:47:28.651Z,990.06
2022-10-16T05:48:28.064Z,990.08
2022-10-16T05:49:28.099Z,990.10
2022-10-16T05:50:28.044Z,990.06
2022-10-16T05:51:28.023Z,990.05
2022-10-16T05:52:28.012Z,990.07
2022-10-16T05:53:28.073Z,990.06
2022-10-16T05:54:28.018Z,990.11
2022-10-16T05:55:27.996Z,990.10
2022-10-16T05:56:29.832Z,990.07
2022-10-16T05:57:28.175Z,990.11
2022-10-16T05:58:27.946Z,990.13
2022-10-16T05:59:27.963Z,990.12
2022-10-16T06:00:27.931Z,990.13
2022-10-16T06:01:27.954Z,990.12
2022-10-16T06:02:27.949Z,990.12
2022-10-16T06:03:27.877Z,990.14
2022-10-16T06:04:27.892Z,990.19
2022-10-16T06:05:27.869Z,990.16
2022-10-16T06:06:27.839Z,990.12
2022-10-16T06:07:28.114Z,990.09
2022-10-16T06:08:27.849Z,990.07
2022-10-16T06:09:27.798Z,990.10
2022-10-16T06:10:27.780Z,990.16
2022-10-16T06:11:27.777Z,990.18
2022-10-16T06:12:27.749Z,990.20
2022-10-16T06:13:27.778Z,990.18
2022-10-16T06:14:27.942Z,990.20
2022-10-16T06:15:27.708Z,990.22
2022-10-16T06:16:27.712Z,990.26
2022-10-16T06:17:28.095Z,990.29
2022-10-16T06:18:27.686Z,990.29
2022-10-16T06:19:27.667Z,990.24
2022-10-16T06:20:27.678Z,990.16
2022-10-16T06:21:27.636Z,990.09
2022-10-16T06:22:27.648Z,990.01
2022-10-16T06:23:27.623Z,989.98
2022-10-16T06:24:27.614Z,990.04
2022-10-16T06:25:27.583Z,990.07
2022-10-16T06:26:27.605Z,990.14
2022-10-16T06:27:27.740Z,990.13
2022-10-16T06:28:27.584Z,990.17
2022-10-16T06:29:27.553Z,990.16
2022-10-16T06:30:27.624Z,990.17
2022-10-16T06:31:27.538Z,990.16
2022-10-16T06:32:27.552Z,990.15
2022-10-16T06:33:27.475Z,990.16
2022-10-16T06:34:27.668Z,990.21
2022-10-16T06:35:27.459Z,990.22
2022-10-16T06:36:27.480Z,990.27
2022-10-16T06:37:27.940Z,990.33
2022-10-16T06:38:27.441Z,990.41
2022-10-16T06:39:27.452Z,990.48
2022-10-16T06:40:27.445Z,990.50
2022-10-16T06:41:27.410Z,990.49
2022-10-16T06:42:27.761Z,990.49
2022-10-16T06:43:27.359Z,990.47
2022-10-16T06:44:28.023Z,990.45
2022-10-16T06:45:27.359Z,990.42
2022-10-16T06:46:27.317Z,990.36
2022-10-16T06:47:27.350Z,990.34
2022-10-16T06:48:27.307Z,990.36
2022-10-16T06:49:27.271Z,990.42
2022-10-16T06:50:27.281Z,990.49
2022-10-16T06:51:27.247Z,990.46
2022-10-16T06:52:27.644Z,990.50
2022-10-16T06:53:27.236Z,990.52
2022-10-16T06:54:27.243Z,990.55
2022-10-16T06:55:27.197Z,990.57
2022-10-16T06:56:27.187Z,990.60
2022-10-16T06:57:27.213Z,990.64
2022-10-16T06:58:27.167Z,990.62
2022-10-16T06:59:27.179Z,990.69
2022-10-16T07:00:27.149Z,990.70
2022-10-16T07:01:27.126Z,990.71
2022-10-16T07:02:27.538Z,990.71
2022-10-16T07:03:27.137Z,990.71
2022-10-16T07:04:27.109Z,990.68
2022-10-16T07:05:27.104Z,990.67
2022-10-16T07:06:27.104Z,990.68
2022-10-16T07:07:27.129Z,990.69
2022-10-16T07:08:27.051Z,990.77
2022-10-16T07:09:27.144Z,990.78
2022-10-16T07:10:27.035Z,990.75
2022-10-16T07:11:27.087Z,990.70
2022-10-16T07:12:27.390Z,990.71
2022-10-16T07:13:26.994Z,990.71
2022-10-16T07:14:26.943Z,990.70
2022-10-16T07:15:26.944Z,990.71
2022-10-16T07:16:26.934Z,990.71
2022-10-16T07:17:26.941Z,990.70
2022-10-16T07:18:26.917Z,990.81
2022-10-16T07:19:30.473Z,990.78
2022-10-16T07:20:27.861Z,990.77
2022-10-16T07:21:26.874Z,990.77
2022-10-16T07:22:27.190Z,990.78
2022-10-16T07:23:26.870Z,990.72
2022-10-16T07:24:26.812Z,990.75
2022-10-16T07:25:26.801Z,990.76
2022-10-16T07:26:26.841Z,990.78
2022-10-16T07:27:26.886Z,990.85
2022-10-16T07:28:26.842Z,990.84
2022-10-16T07:29:26.800Z,990.87
2022-10-16T07:30:26.758Z,990.94
2022-10-16T07:31:26.734Z,990.93
2022-10-16T07:32:27.138Z,990.84
2022-10-16T07:33:26.718Z,990.90
2022-10-16T07:34:26.699Z,990.87
2022-10-16T07:35:26.668Z,990.87
2022-10-16T07:36:26.668Z,990.87
2022-10-16T07:37:26.876Z,990.87
2022-10-16T07:38:26.638Z,990.89
2022-10-16T07:39:26.637Z,990.93
2022-10-16T07:40:26.616Z,990.91
2022-10-16T07:41:26.676Z,990.91
2022-10-16T07:42:26.625Z,990.94
2022-10-16T07:43:26.598Z,990.97
2022-10-16T07:44:26.576Z,991.00
2022-10-16T07:45:26.567Z,991.00
2022-10-16T07:46:26.544Z,991.04
2022-10-16T07:47:26.740Z,991.04
2022-10-16T07:48:26.515Z,991.02
2022-10-16T07:49:26.509Z,991.02
2022-10-16T07:50:26.485Z,991.06
2022-10-16T07:51:26.484Z,991.05
2022-10-16T07:52:26.454Z,991.09
2022-10-16T07:53:27.146Z,991.12
2022-10-16T07:54:26.457Z,991.11
2022-10-16T07:55:26.445Z,991.11
2022-10-16T07:56:26.421Z,991.11
2022-10-16T07:57:26.773Z,991.15
2022-10-16T07:58:26.402Z,991.20
2022-10-16T07:59:26.385Z,991.19
2022-10-16T08:00:26.387Z,991.24
2022-10-16T08:01:26.406Z,991.26
2022-10-16T08:02:26.353Z,991.28
2022-10-16T08:03:26.341Z,991.29
2022-10-16T08:04:26.329Z,991.31
2022-10-16T08:05:26.321Z,991.32
2022-10-16T08:06:28.155Z,991.35
2022-10-16T08:07:26.445Z,991.34
2022-10-16T08:08:26.294Z,991.37
2022-10-16T08:09:26.261Z,991.37
2022-10-16T08:10:26.220Z,991.37
2022-10-16T08:11:26.249Z,991.38
2022-10-16T08:12:26.230Z,991.40
2022-10-16T08:13:26.231Z,991.40
2022-10-16T08:14:26.190Z,991.41
2022-10-16T08:15:26.188Z,991.41
2022-10-16T08:16:26.169Z,991.41
2022-10-16T08:17:26.454Z,991.44
2022-10-16T08:18:26.159Z,991.45
2022-10-16T08:19:26.151Z,991.43
2022-10-16T08:20:26.116Z,991.43
2022-10-16T08:21:26.117Z,991.43
2022-10-16T08:22:26.090Z,991.45
2022-10-16T08:23:26.077Z,991.45
2022-10-16T08:24:26.076Z,991.47
2022-10-16T08:25:26.049Z,991.45
2022-10-16T08:26:26.017Z,991.46
2022-10-16T08:27:26.234Z,991.48
2022-10-16T08:28:26.011Z,991.52
2022-10-16T08:29:26.005Z,991.52
2022-10-16T08:30:26.015Z,991.49
2022-10-16T08:31:25.985Z,991.47
2022-10-16T08:32:27.594Z,991.48
2022-10-16T08:33:25.963Z,991.49
2022-10-16T08:34:25.944Z,991.53
2022-10-16T08:35:25.918Z,991.46
2022-10-16T08:36:25.944Z,991.50
2022-10-16T08:37:25.893Z,991.49
2022-10-16T08:38:25.864Z,991.50
2022-10-16T08:39:25.911Z,991.48
2022-10-16T08:41:25.853Z,991.46
2022-10-16T08:42:26.973Z,991.45
2022-10-16T08:43:25.815Z,991.46
2022-10-16T08:44:25.834Z,991.45
2022-10-16T08:45:25.782Z,991.42
2022-10-16T08:46:25.884Z,991.44
2022-10-16T08:47:25.761Z,991.42
2022-10-16T08:48:25.731Z,991.38
2022-10-16T08:49:25.728Z,991.41
2022-10-16T08:50:25.710Z,991.46
2022-10-16T08:51:25.740Z,991.54
2022-10-16T08:52:25.887Z,991.55
2022-10-16T08:53:25.710Z,991.51
2022-10-16T08:54:25.701Z,991.56
2022-10-16T08:55:25.739Z,991.61
2022-10-16T08:56:25.650Z,991.56
2022-10-16T08:57:25.640Z,991.55
2022-10-16T08:58:25.618Z,991.53
2022-10-16T08:59:25.618Z,991.53
2022-10-16T09:00:25.645Z,991.54
2022-10-16T09:01:25.627Z,991.55
2022-10-16T09:02:25.975Z,991.58
2022-10-16T09:03:25.591Z,991.55
2022-10-16T09:04:25.545Z,991.54
2022-10-16T09:05:25.534Z,991.53
2022-10-16T09:06:25.554Z,991.58
2022-10-16T09:07:25.507Z,991.62
2022-10-16T09:08:25.489Z,991.64
2022-10-16T09:09:25.498Z,991.67
2022-10-16T09:10:25.469Z,991.66
2022-10-16T09:11:25.456Z,991.71
2022-10-16T09:12:25.805Z,991.74
2022-10-16T09:13:25.450Z,991.78
2022-10-16T09:14:25.415Z,991.75
2022-10-16T09:15:25.412Z,991.79
2022-10-16T09:16:25.406Z,991.81
2022-10-16T09:17:25.598Z,991.87
2022-10-16T09:18:28.665Z,991.88
2022-10-16T09:19:26.342Z,991.85
2022-10-16T09:20:25.334Z,991.91
2022-10-16T09:21:25.324Z,991.94
2022-10-16T09:22:25.336Z,991.98
2022-10-16T09:23:25.303Z,992.01
2022-10-16T09:24:27.006Z,992.03
2022-10-16T09:25:25.262Z,992.03
2022-10-16T09:26:25.284Z,992.07
2022-10-16T09:27:25.477Z,992.13
2022-10-16T09:28:25.339Z,992.12
2022-10-16T09:29:25.212Z,992.17
2022-10-16T09:30:25.213Z,992.21
2022-10-16T09:31:25.212Z,992.24
2022-10-16T09:32:25.163Z,992.27
2022-10-16T09:33:25.184Z,992.26
2022-10-16T09:34:25.139Z,992.30
2022-10-16T09:35:25.190Z,992.29
2022-10-16T09:36:25.153Z,992.27
2022-10-16T09:37:25.391Z,992.26
2022-10-16T09:38:25.110Z,992.24
2022-10-16T09:39:25.099Z,992.25
2022-10-16T09:40:25.069Z,992.24
2022-10-16T09:41:25.058Z,992.20
2022-10-16T09:42:25.047Z,992.24
2022-10-16T09:43:25.053Z,992.22
2022-10-16T09:44:25.038Z,992.24
2022-10-16T09:45:25.008Z,992.24
2022-10-16T09:46:25.039Z,992.21
2022-10-16T09:47:25.248Z,992.26
2022-10-16T09:48:25.008Z,992.23
2022-10-16T09:49:24.970Z,992.27
2022-10-16T09:50:24.937Z,992.28
2022-10-16T09:51:24.937Z,992.24
2022-10-16T09:52:24.907Z,992.26
2022-10-16T09:53:24.939Z,992.30
2022-10-16T09:54:24.898Z,992.34
2022-10-16T09:55:24.886Z,992.39
2022-10-16T09:56:24.866Z,992.39
2022-10-16T09:57:25.351Z,992.33
2022-10-16T09:58:24.848Z,992.37
2022-10-16T09:59:24.865Z,992.41
2022-10-16T10:00:24.804Z,992.43
2022-10-16T10:01:24.823Z,992.46
2022-10-16T10:02:24.953Z,992.49
2022-10-16T10:03:24.776Z,992.48
2022-10-16T10:04:24.776Z,992.50
2022-10-16T10:05:24.756Z,992.50
2022-10-16T10:06:24.734Z,992.50
2022-10-16T10:07:24.990Z,992.50
2022-10-16T10:08:24.714Z,992.52
2022-10-16T10:09:24.691Z,992.49
2022-10-16T10:10:24.744Z,992.52
2022-10-16T10:11:24.673Z,992.58
2022-10-16T10:12:26.989Z,992.60
2022-10-16T10:13:24.644Z,992.60
2022-10-16T10:14:24.643Z,992.62
2022-10-16T10:15:24.618Z,992.61
2022-10-16T10:16:24.604Z,992.63
2022-10-16T10:17:24.585Z,992.60
2022-10-16T10:18:24.601Z,992.59
2022-10-16T10:19:28.063Z,992.62
2022-10-16T10:20:25.551Z,992.62
2022-10-16T10:21:24.532Z,992.62
2022-10-16T10:22:25.014Z,992.60
2022-10-16T10:23:24.499Z,992.64
2022-10-16T10:24:24.491Z,992.61
2022-10-16T10:25:24.493Z,992.61
2022-10-16T10:26:24.501Z,992.60
2022-10-16T10:27:24.553Z,992.58
2022-10-16T10:28:24.508Z,992.59
2022-10-16T10:29:24.448Z,992.55
2022-10-16T10:30:24.432Z,992.62
2022-10-16T10:31:24.410Z,992.60
2022-10-16T10:32:24.776Z,992.60
2022-10-16T10:33:24.381Z,992.61
2022-10-16T10:34:24.379Z,992.64
2022-10-16T10:35:24.370Z,992.65
2022-10-16T10:36:24.341Z,992.60
2022-10-16T10:37:24.340Z,992.64
2022-10-16T10:38:24.308Z,992.65
2022-10-16T10:39:24.322Z,992.66
2022-10-16T10:40:24.302Z,992.67
2022-10-16T10:41:26.595Z,992.65
2022-10-16T10:42:25.589Z,992.63
2022-10-16T10:43:24.294Z,992.60
2022-10-16T10:44:24.247Z,992.60
2022-10-16T10:45:24.226Z,992.58
2022-10-16T10:46:24.236Z,992.58
2022-10-16T10:47:24.196Z,992.60
2022-10-16T10:48:24.280Z,992.61
2022-10-16T10:49:24.175Z,992.59
2022-10-16T10:50:24.168Z,992.61
2022-10-16T10:51:24.148Z,992.61
2022-10-16T10:52:24.427Z,992.62
2022-10-16T10:53:24.116Z,992.64
2022-10-16T10:54:24.134Z,992.62
2022-10-16T10:55:24.113Z,992.62
2022-10-16T10:56:24.074Z,992.60
2022-10-16T10:57:24.104Z,992.61
2022-10-16T10:58:24.098Z,992.59
2022-10-16T10:59:24.073Z,992.59
2022-10-16T11:00:24.055Z,992.55
2022-10-16T11:01:24.057Z,992.46
2022-10-16T11:02:24.200Z,992.48
2022-10-16T11:03:23.993Z,992.45
2022-10-16T11:04:23.983Z,992.49
2022-10-16T11:05:23.963Z,992.51
2022-10-16T11:06:23.993Z,992.47
2022-10-16T11:07:24.049Z,992.43
2022-10-16T11:08:23.943Z,992.44
2022-10-16T11:09:23.942Z,992.45
2022-10-16T11:10:23.934Z,992.49
2022-10-16T11:11:23.881Z,992.53
2022-10-16T11:12:23.872Z,992.51
2022-10-16T11:13:23.883Z,992.51
2022-10-16T11:14:23.850Z,992.48
2022-10-16T11:15:23.842Z,992.47
2022-10-16T11:16:23.837Z,992.50
2022-10-16T11:17:24.037Z,992.47
2022-10-16T11:18:23.831Z,992.46
2022-10-16T11:19:23.787Z,992.46
2022-10-16T11:20:23.799Z,992.50
2022-10-16T11:21:28.731Z,992.54
2022-10-16T11:22:24.830Z,992.53
2022-10-16T11:23:23.771Z,992.54
2022-10-16T11:24:23.718Z,992.53
2022-10-16T11:25:23.698Z,992.58
2022-10-16T11:26:23.697Z,992.62
2022-10-16T11:27:23.885Z,992.61
2022-10-16T11:28:26.610Z,992.64
2022-10-16T11:29:24.657Z,992.67
2022-10-16T11:30:23.637Z,992.66
2022-10-16T11:31:23.640Z,992.65
2022-10-16T11:32:23.616Z,992.65
2022-10-16T11:33:23.656Z,992.64
2022-10-16T11:34:23.616Z,992.64
2022-10-16T11:35:23.596Z,992.57
2022-10-16T11:36:23.566Z,992.53
2022-10-16T11:37:23.724Z,992.52
2022-10-16T11:38:23.648Z,992.54
2022-10-16T11:39:23.537Z,992.52
2022-10-16T11:40:23.517Z,992.53
2022-10-16T11:41:23.507Z,992.56
2022-10-16T11:42:23.490Z,992.55
2022-10-16T11:43:23.475Z,992.56
2022-10-16T11:44:23.465Z,992.54
2022-10-16T11:45:23.462Z,992.54
2022-10-16T11:46:23.443Z,992.52
2022-10-16T11:48:24.443Z,992.53
2022-10-16T11:49:23.393Z,992.53
2022-10-16T11:50:23.403Z,992.56
2022-10-16T11:51:23.439Z,992.53
2022-10-16T11:52:23.374Z,992.50
2022-10-16T11:53:23.341Z,992.49
2022-10-16T11:54:23.349Z,992.50
2022-10-16T11:55:23.342Z,992.50
2022-10-16T11:56:23.315Z,992.55
2022-10-16T11:57:23.305Z,992.59
2022-10-16T11:58:23.343Z,992.60
2022-10-16T11:59:23.290Z,992.63
2022-10-16T12:00:23.269Z,992.61
2022-10-16T12:02:23.273Z,992.59
2022-10-16T12:03:23.308Z,992.61
2022-10-16T12:04:23.227Z,992.59
2022-10-16T12:05:23.199Z,992.57
2022-10-16T12:06:23.221Z,992.48
2022-10-16T12:07:23.178Z,992.50
2022-10-16T12:08:23.159Z,992.50
2022-10-16T12:09:23.160Z,992.48
2022-10-16T12:10:26.710Z,992.46
2022-10-16T12:11:23.158Z,992.51
2022-10-16T12:12:23.333Z,992.49
2022-10-16T12:13:23.097Z,992.49
2022-10-16T12:14:23.087Z,992.46
2022-10-16T12:15:40.515Z,992.47
2022-10-16T12:16:24.098Z,992.47
2022-10-16T12:17:23.047Z,992.48
2022-10-16T12:18:23.028Z,992.49
2022-10-16T12:19:23.047Z,992.49
2022-10-16T12:20:23.015Z,992.52
2022-10-16T12:21:22.987Z,992.55
2022-10-16T12:22:22.978Z,992.54
2022-10-16T12:23:22.955Z,992.56
2022-10-16T12:24:22.992Z,992.50
2022-10-16T12:25:22.935Z,992.51
2022-10-16T12:26:22.945Z,992.48
2022-10-16T12:27:22.914Z,992.48
2022-10-16T12:28:22.992Z,992.49
2022-10-16T12:29:22.897Z,992.54
2022-10-16T12:30:22.874Z,992.51
2022-10-16T12:31:22.921Z,992.52
2022-10-16T12:32:41.867Z,992.53
2022-10-16T12:33:23.843Z,992.53